Time;durP1;ratioP1;P1;durP2;ratioP2;P2;SDS_P1;SDS_P2;PMS_P1;PMS_P2;Temp;Humidity;BMP_temperature;BMP_pressure;BME280_temperature;BME280_humidity;BME280_pressure;Samples;Min_cycle;Max_cycle;Signal;HPM_P1;HPM_P2
2023/07/13 00:01:23;;;;;;;12.20;1.40;;;;;;;29.37;48.65;100676.09;5015156;28;20052;-77
2023/07/13 00:04:09;;;;;;;4.00;0.90;;;;;;;29.33;48.69;100596.97;5015212;28;20073;-77
2023/07/13 00:06:53;;;;;;;8.90;1.08;;;;;;;29.30;48.09;100558.59;5015244;28;20415;-77
2023/07/13 00:09:38;;;;;;;2.38;0.68;;;;;;;29.25;47.32;100534.75;5005680;28;20053;-77
2023/07/13 00:12:28;;;;;;;1.75;0.50;;;;;;;29.10;46.82;100516.00;5015371;28;20049;-77
2023/07/13 00:15:22;;;;;;;2.70;0.57;;;;;;;28.98;47.29;100491.56;5014595;28;20049;-77
2023/07/13 00:18:07;;;;;;;3.97;0.90;;;;;;;28.88;47.45;100466.25;5007668;28;20050;-77
2023/07/13 00:20:52;;;;;;;5.43;0.63;;;;;;;28.85;47.50;100444.75;5014683;28;20053;-77
2023/07/13 00:23:39;;;;;;;2.30;0.88;;;;;;;28.79;47.01;100415.75;5016481;28;20530;-77
2023/07/13 00:26:24;;;;;;;3.58;0.90;;;;;;;28.85;47.82;100404.78;5014629;28;20053;-77
2023/07/13 00:29:08;;;;;;;2.90;0.70;;;;;;;28.80;47.37;100389.31;5013446;28;20049;-77
2023/07/13 00:31:55;;;;;;;3.38;0.60;;;;;;;28.80;47.55;100386.50;5013759;28;20052;-77
2023/07/13 00:34:39;;;;;;;2.22;1.02;;;;;;;28.89;48.39;100385.84;5014387;28;20045;-77
2023/07/13 00:37:24;;;;;;;1.95;0.55;;;;;;;28.91;48.37;100381.34;5004730;28;20048;-77
2023/07/13 00:40:12;;;;;;;5.47;1.02;;;;;;;28.89;48.58;100378.25;5013202;28;20049;-77
2023/07/13 00:42:59;;;;;;;1.85;0.80;;;;;;;28.82;47.61;100372.84;5014444;28;20052;-77
2023/07/13 00:45:44;;;;;;;2.13;0.60;;;;;;;28.77;48.24;100376.22;5013273;28;20049;-77
2023/07/13 00:48:34;;;;;;;1.75;0.82;;;;;;;28.82;48.90;100384.06;5016410;28;20525;-77
2023/07/13 00:51:28;;;;;;;1.95;0.80;;;;;;;28.84;48.86;100386.41;5013858;28;20053;-77
2023/07/13 00:54:26;;;;;;;4.78;0.73;;;;;;;28.81;49.07;100382.47;5017884;28;20041;-77
2023/07/13 00:57:18;;;;;;;2.63;0.93;;;;;;;28.82;49.38;100386.06;5015040;28;20293;-77
2023/07/13 01:00:06;;;;;;;2.67;0.50;;;;;;;28.82;49.56;100386.06;5017149;28;20053;-77
2023/07/13 01:02:51;;;;;;;2.75;0.60;;;;;;;28.79;49.62;100396.16;5016716;28;20049;-77
2023/07/13 01:05:37;;;;;;;1.15;0.80;;;;;;;28.77;50.05;100407.00;5014699;28;20135;-77
2023/07/13 01:08:22;;;;;;;1.85;0.60;;;;;;;28.73;50.14;100413.94;5018630;28;20065;-77
2023/07/13 01:11:07;;;;;;;3.00;0.60;;;;;;;28.76;50.15;100413.84;5014514;28;20053;-77
2023/07/13 01:13:53;;;;;;;1.33;0.68;;;;;;;28.73;49.78;100423.13;5014661;28;20052;-77
2023/07/13 01:16:42;;;;;;;1.60;0.50;;;;;;;28.73;49.92;100431.53;5012066;28;20060;-77
2023/07/13 01:19:39;;;;;;;0.93;0.45;;;;;;;28.73;49.99;100436.34;5012399;28;20049;-77
2023/07/13 01:22:26;;;;;;;1.23;0.40;;;;;;;28.70;50.09;100428.81;5012674;28;20061;-77
2023/07/13 01:25:10;;;;;;;1.15;0.52;;;;;;;28.68;50.04;100437.66;5004056;28;20060;-77
2023/07/13 01:27:55;;;;;;;2.05;1.13;;;;;;;28.66;50.40;100439.31;5015818;28;20057;-77
2023/07/13 01:30:40;;;;;;;2.65;0.63;;;;;;;28.65;50.45;100432.16;5014273;28;20048;-77
2023/07/13 01:33:26;;;;;;;5.60;1.25;;;;;;;28.62;50.58;100444.25;5013797;28;20056;-77
2023/07/13 01:36:11;;;;;;;1.50;0.70;;;;;;;28.60;49.97;100438.31;5016632;28;20052;-77
2023/07/13 01:38:56;;;;;;;1.40;0.63;;;;;;;28.61;50.36;100446.25;5012465;28;20057;-77
2023/07/13 01:41:41;;;;;;;3.72;1.05;;;;;;;28.55;49.97;100436.06;5003390;28;20045;-77
2023/07/13 01:44:26;;;;;;;1.65;0.55;;;;;;;28.53;50.48;100444.91;5010799;28;20522;-77
2023/07/13 01:47:11;;;;;;;9.85;0.70;;;;;;;28.53;50.77;100450.50;5013435;28;20057;-77
2023/07/13 01:49:56;;;;;;;2.03;0.70;;;;;;;28.37;49.24;100448.56;5009653;28;20052;-77
2023/07/13 01:52:41;;;;;;;4.30;0.47;;;;;;;28.38;49.83;100446.56;5012733;28;20068;-77
2023/07/13 01:55:26;;;;;;;3.38;0.80;;;;;;;28.33;49.16;100453.47;5016717;28;20049;-77
2023/07/13 01:58:11;;;;;;;1.30;0.40;;;;;;;28.35;49.76;100441.81;5028467;28;20049;-77
2023/07/13 02:00:57;;;;;;;2.28;0.88;;;;;;;28.32;49.42;100456.72;5012948;28;20517;-78
2023/07/13 02:03:42;;;;;;;3.13;0.60;;;;;;;28.22;49.16;100457.78;5013145;28;20514;-77
2023/07/13 02:06:27;;;;;;;1.27;0.65;;;;;;;28.24;49.56;100458.16;5012563;28;20518;-77
2023/07/13 02:09:12;;;;;;;2.13;1.02;;;;;;;28.28;50.26;100462.41;5012633;28;20522;-77
2023/07/13 02:11:56;;;;;;;1.52;0.70;;;;;;;28.24;50.08;100467.28;5013111;28;20056;-77
2023/07/13 02:14:41;;;;;;;2.05;0.60;;;;;;;28.20;49.68;100469.41;5013045;28;20045;-77
2023/07/13 02:17:26;;;;;;;3.38;1.00;;;;;;;28.16;49.34;100468.72;5011921;28;20045;-77
2023/07/13 02:20:11;;;;;;;4.03;1.25;;;;;;;28.10;49.74;100462.06;5010439;28;20049;-77
2023/07/13 02:22:56;;;;;;;2.40;0.70;;;;;;;28.08;49.58;100464.53;5015295;28;20069;-77
2023/07/13 02:25:41;;;;;;;3.42;0.93;;;;;;;28.11;50.04;100474.84;5013289;28;20045;-77
2023/07/13 02:28:26;;;;;;;1.63;0.90;;;;;;;28.13;50.28;100475.22;5016974;28;20068;-77
2023/07/13 02:31:14;;;;;;;5.32;0.73;;;;;;;28.16;50.38;100484.72;5013326;28;20522;-77
2023/07/13 02:33:59;;;;;;;2.25;0.90;;;;;;;28.09;50.09;100471.69;5013864;28;20053;-77
2023/07/13 02:36:44;;;;;;;3.10;1.00;;;;;;;28.04;49.70;100475.78;5017068;28;20064;-77
2023/07/13 02:39:29;;;;;;;7.53;1.20;;;;;;;28.06;50.02;100478.94;5012696;28;20053;-77
2023/07/13 02:42:14;;;;;;;3.55;1.05;;;;;;;28.04;50.41;100486.97;5014084;28;20061;-77
2023/07/13 02:44:58;;;;;;;2.25;0.90;;;;;;;28.05;50.60;100490.56;5011969;28;20065;-77
2023/07/13 02:47:43;;;;;;;3.83;0.93;;;;;;;28.02;50.27;100489.44;5015340;28;20060;-77
2023/07/13 02:50:29;;;;;;;4.68;1.25;;;;;;;27.98;50.22;100493.56;5014057;28;20053;-77
2023/07/13 02:53:14;;;;;;;5.82;1.17;;;;;;;28.00;50.72;100503.06;5012429;28;20053;-77
2023/07/13 02:55:59;;;;;;;5.68;1.25;;;;;;;27.98;50.82;100491.56;5002144;28;20049;-77
2023/07/13 02:58:44;;;;;;;3.63;0.90;;;;;;;27.97;50.94;100509.56;5012907;28;20045;-77
2023/07/13 03:01:29;;;;;;;2.08;0.70;;;;;;;27.97;50.93;100515.16;5011756;28;20518;-77
2023/07/13 03:04:14;;;;;;;4.38;0.80;;;;;;;27.91;50.89;100505.72;5016021;28;20517;-77
2023/07/13 03:06:59;;;;;;;4.28;1.40;;;;;;;27.93;50.69;100508.09;5013610;28;20045;-77
2023/07/13 03:09:48;;;;;;;2.88;1.00;;;;;;;27.92;50.90;100512.88;5014206;28;20336;-77
2023/07/13 03:12:34;;;;;;;3.72;0.80;;;;;;;27.86;50.75;100511.84;5019556;28;20048;-77
2023/07/13 03:15:22;;;;;;;3.92;1.17;;;;;;;27.88;50.31;100525.38;5017211;28;20517;-77
2023/07/13 03:18:08;;;;;;;5.70;1.05;;;;;;;27.85;50.21;100527.03;5014942;28;20053;-77
2023/07/13 03:20:53;;;;;;;3.67;0.77;;;;;;;27.83;50.11;100526.69;5017140;28;20444;-77
2023/07/13 03:23:38;;;;;;;4.20;1.05;;;;;;;27.82;50.07;100533.50;5017401;28;20052;-77
2023/07/13 03:26:23;;;;;;;2.30;1.10;;;;;;;27.80;50.27;100537.94;5015212;28;20045;-77
2023/07/13 03:29:08;;;;;;;5.55;1.30;;;;;;;27.76;50.33;100542.84;5016178;28;20518;-77
2023/07/13 03:31:53;;;;;;;1.98;0.57;;;;;;;27.74;49.99;100545.28;5143265;22;20075;-82
2023/07/13 03:34:40;;;;;;;2.78;1.23;;;;;;;27.74;50.13;100546.06;5040849;28;20068;-82
2023/07/13 03:37:25;;;;;;;2.17;0.90;;;;;;;27.70;50.22;100548.16;5046324;28;20044;-83
2023/07/13 03:40:11;;;;;;;3.30;0.60;;;;;;;27.63;49.91;100551.91;5046177;28;20047;-83
2023/07/13 03:42:56;;;;;;;6.47;1.00;;;;;;;27.60;49.83;100558.38;5044319;28;20541;-81
2023/07/13 03:45:41;;;;;;;2.30;0.90;;;;;;;27.51;50.14;100558.22;5056503;28;20044;-81
2023/07/13 03:48:26;;;;;;;2.60;1.17;;;;;;;27.50;50.31;100555.84;5040688;28;20036;-82
2023/07/13 03:51:14;;;;;;;4.72;0.77;;;;;;;27.47;50.47;100554.69;5058912;28;20059;-81
2023/07/13 03:53:59;;;;;;;3.40;0.98;;;;;;;27.39;50.33;100570.00;5056062;28;20043;-81
2023/07/13 03:56:44;;;;;;;4.55;1.13;;;;;;;27.36;50.44;100562.50;5059906;28;20052;-81
2023/07/13 03:59:28;;;;;;;1.55;0.98;;;;;;;27.37;50.33;100560.50;5044508;28;20044;-81
2023/07/13 04:02:13;;;;;;;5.82;1.52;;;;;;;27.39;50.11;100566.44;5042791;28;20048;-81
2023/07/13 04:04:58;;;;;;;8.40;1.60;;;;;;;24.46;57.21;100565.22;5041182;28;20048;-82
2023/07/13 04:07:43;;;;;;;5.38;1.50;;;;;;;24.58;59.07;100544.44;5039067;28;20048;-79
2023/07/13 04:10:28;;;;;;;3.67;1.40;;;;;;;23.49;61.35;100548.97;5045927;28;20542;-79
2023/07/13 04:13:14;;;;;;;4.70;1.30;;;;;;;22.78;64.58;100558.41;5041768;28;20072;-79
2023/07/13 04:15:59;;;;;;;2.17;1.33;;;;;;;22.96;64.47;100553.59;5045177;28;20048;-79
2023/07/13 04:18:45;;;;;;;1.73;1.20;;;;;;;23.71;62.46;100561.50;5059258;28;20052;-79
2023/07/13 04:21:31;;;;;;;5.43;1.10;;;;;;;24.63;59.60;100563.47;5033900;28;20087;-80
2023/07/13 04:24:16;;;;;;;3.80;1.80;;;;;;;24.49;59.19;100553.25;5030202;28;20059;-79
2023/07/13 04:27:02;;;;;;;7.00;2.22;;;;;;;24.83;58.37;100560.84;5077094;28;20410;-81
2023/07/13 04:29:48;;;;;;;3.65;1.80;;;;;;;24.50;58.89;100565.19;5040538;28;20048;-82
2023/07/13 04:32:33;;;;;;;5.25;1.33;;;;;;;24.31;60.53;100560.22;5051291;28;20040;-81
2023/07/13 04:35:20;;;;;;;4.85;2.17;;;;;;;22.61;65.50;100573.09;5057857;28;20052;-82
2023/07/13 04:38:06;;;;;;;2.78;1.85;;;;;;;23.13;64.64;100568.56;5051725;28;20518;-81
2023/07/13 04:40:51;;;;;;;3.83;1.90;;;;;;;23.77;63.23;100568.97;5049561;28;20570;-82
2023/07/13 04:43:37;;;;;;;5.63;1.85;;;;;;;24.39;60.72;100568.06;5052683;28;20055;-81
2023/07/13 04:46:22;;;;;;;11.05;1.65;;;;;;;24.78;59.24;100570.44;5041834;28;20522;-80
2023/07/13 04:49:07;;;;;;;4.15;1.60;;;;;;;24.90;58.88;100580.25;5032364;28;20542;-81
2023/07/13 04:51:52;;;;;;;6.95;2.45;;;;;;;25.12;58.06;100585.13;5055716;28;20043;-81
2023/07/13 04:54:38;;;;;;;4.72;1.65;;;;;;;24.75;58.63;100592.72;5038096;28;20047;-83
2023/07/13 04:57:23;;;;;;;9.23;1.77;;;;;;;24.89;58.99;100581.47;5034451;28;20416;-82
2023/07/13 05:00:09;;;;;;;13.75;1.85;;;;;;;24.82;59.86;100584.28;5049183;28;20044;-80
2023/07/13 05:02:55;;;;;;;4.15;1.70;;;;;;;25.28;58.30;100592.88;5029210;28;20034;-81
2023/07/13 05:05:40;;;;;;;2.95;1.58;;;;;;;25.41;57.58;100596.66;5037282;28;20522;-81
2023/07/13 05:08:26;;;;;;;5.57;1.70;;;;;;;25.50;57.09;100601.72;5050002;28;20056;-80
2023/07/13 05:11:11;;;;;;;7.35;1.58;;;;;;;25.43;56.64;100591.47;5058870;28;20048;-81
2023/07/13 05:13:56;;;;;;;4.35;1.65;;;;;;;25.64;57.11;100597.97;5052328;28;20418;-81
2023/07/13 05:16:41;;;;;;;2.13;1.05;;;;;;;25.92;56.15;100595.53;5040670;28;20048;-80
2023/07/13 05:19:26;;;;;;;6.80;1.77;;;;;;;25.97;56.83;100595.06;5052181;28;20510;-82
2023/07/13 05:22:12;;;;;;;3.80;1.70;;;;;;;25.92;57.44;100594.75;5057330;28;20052;-82
2023/07/13 05:24:57;;;;;;;2.45;1.45;;;;;;;25.93;57.56;100596.31;5032794;28;20059;-82
2023/07/13 05:27:42;;;;;;;5.90;1.23;;;;;;;25.86;56.95;100588.84;5036477;28;20088;-81
2023/07/13 05:30:26;;;;;;;6.43;1.88;;;;;;;25.91;56.27;100602.31;5040492;28;20057;-83
2023/07/13 05:33:12;;;;;;;13.27;1.95;;;;;;;26.14;55.91;100595.97;5043613;28;20044;-83
2023/07/13 05:35:57;;;;;;;23.02;3.08;;;;;;;26.22;56.55;100603.03;5053612;28;20100;-81
2023/07/13 05:38:42;;;;;;;25.10;2.58;;;;;;;26.56;56.10;100594.47;5020601;28;20045;-81
2023/07/13 05:41:27;;;;;;;6.03;1.50;;;;;;;26.28;55.24;100603.31;5025120;28;20056;-82
2023/07/13 05:44:12;;;;;;;4.80;1.48;;;;;;;26.24;54.88;100606.19;5038715;28;20522;-81
2023/07/13 05:46:57;;;;;;;5.20;1.25;;;;;;;26.24;54.20;100606.19;5039099;28;20507;-82
2023/07/13 05:49:41;;;;;;;7.53;1.13;;;;;;;26.22;54.33;100600.22;5050035;28;20040;-81
2023/07/13 05:52:27;;;;;;;5.22;1.48;;;;;;;25.98;53.88;100596.63;5048305;28;20052;-83
2023/07/13 05:55:11;;;;;;;4.38;0.90;;;;;;;25.94;54.47;100598.69;5032333;28;20120;-81
2023/07/13 05:57:58;;;;;;;4.03;1.27;;;;;;;26.07;53.97;100584.16;5037503;28;20051;-81
2023/07/13 06:00:43;;;;;;;4.55;1.20;;;;;;;25.61;54.90;100568.16;5036310;28;20048;-82
2023/07/13 06:03:27;;;;;;;6.95;2.05;;;;;;;25.49;54.91;100569.53;5055712;28;20047;-82
2023/07/13 06:06:13;;;;;;;7.32;1.70;;;;;;;25.68;54.54;100579.22;5058165;28;20040;-82
2023/07/13 06:08:58;;;;;;;9.02;1.73;;;;;;;25.94;54.19;100597.91;5041878;28;20044;-82
2023/07/13 06:11:43;;;;;;;6.68;1.88;;;;;;;25.51;55.84;100600.50;5038297;28;20435;-81
2023/07/13 06:14:28;;;;;;;14.10;2.05;;;;;;;25.38;56.63;100619.78;5032953;28;20044;-80
2023/07/13 06:17:13;;;;;;;5.47;1.70;;;;;;;25.34;56.97;100602.34;5022215;28;20044;-80
2023/07/13 06:19:58;;;;;;;7.18;1.65;;;;;;;25.54;56.12;100597.69;5046177;28;20053;-80
2023/07/13 06:22:43;;;;;;;5.57;1.92;;;;;;;25.53;56.50;100604.47;5047022;28;20053;-81
2023/07/13 06:25:28;;;;;;;6.00;1.35;;;;;;;25.67;55.30;100577.63;5046231;28;20056;-82
2023/07/13 06:28:13;;;;;;;13.43;1.90;;;;;;;25.85;55.58;100569.78;5049061;28;20041;-81
2023/07/13 06:30:58;;;;;;;4.28;1.52;;;;;;;25.88;55.08;100591.22;5045577;28;20053;-80
2023/07/13 06:33:44;;;;;;;7.05;1.50;;;;;;;26.08;55.29;100588.50;5039547;28;20048;-82
2023/07/13 06:36:28;;;;;;;7.45;1.30;;;;;;;26.09;55.60;100568.59;5051627;28;20056;-81
2023/07/13 06:39:14;;;;;;;6.50;2.10;;;;;;;25.98;55.81;100563.19;5049075;28;20060;-80
2023/07/13 06:41:59;;;;;;;8.00;2.03;;;;;;;26.11;55.73;100568.94;5043307;28;20514;-82
2023/07/13 06:44:44;;;;;;;14.07;1.92;;;;;;;26.31;55.50;100583.75;5053891;28;20056;-81
2023/07/13 06:47:28;;;;;;;11.65;1.80;;;;;;;26.27;55.23;100605.31;5039488;28;20052;-81
2023/07/13 06:50:13;;;;;;;11.27;1.95;;;;;;;25.98;56.20;100616.16;5046619;28;20048;-80
2023/07/13 06:52:59;;;;;;;5.47;2.20;;;;;;;26.06;56.27;100636.31;5057099;28;20052;-80
2023/07/13 06:55:45;;;;;;;5.95;1.35;;;;;;;26.23;56.58;100629.69;5038029;28;20039;-82
2023/07/13 06:58:30;;;;;;;7.60;1.73;;;;;;;26.13;55.80;100619.47;5043700;28;20052;-81
2023/07/13 07:01:15;;;;;;;5.25;1.60;;;;;;;25.97;55.76;100611.78;5043841;28;20427;-80
2023/07/13 07:04:00;;;;;;;4.93;2.03;;;;;;;26.00;56.09;100618.50;5057102;28;20055;-80
2023/07/13 07:06:45;;;;;;;6.57;1.65;;;;;;;26.03;55.76;100631.59;5040545;28;20423;-83
2023/07/13 07:09:31;;;;;;;13.43;1.70;;;;;;;25.93;56.94;100626.97;5044536;28;20056;-81
2023/07/13 07:12:16;;;;;;;7.15;1.38;;;;;;;25.99;55.85;100636.44;5026332;28;20041;-80
2023/07/13 07:15:01;;;;;;;7.97;1.98;;;;;;;26.22;55.38;100644.06;5048761;28;20519;-81
2023/07/13 07:17:46;;;;;;;6.22;1.33;;;;;;;26.18;55.48;100641.31;5052559;28;20052;-81
2023/07/13 07:20:32;;;;;;;7.75;1.85;;;;;;;26.22;54.84;100616.97;5041259;28;20048;-81
2023/07/13 07:23:18;;;;;;;14.65;2.05;;;;;;;26.38;54.93;100614.28;5034707;28;20399;-81
2023/07/13 07:26:03;;;;;;;4.75;1.35;;;;;;;26.53;54.15;100614.81;5052972;28;20053;-80
2023/07/13 07:28:48;;;;;;;3.75;1.35;;;;;;;26.74;54.10;100608.06;5040637;28;20518;-81
2023/07/13 07:31:33;;;;;;;8.13;1.85;;;;;;;26.99;53.06;100613.16;5022567;28;20052;-81
2023/07/13 07:34:18;;;;;;;4.97;1.17;;;;;;;27.10;53.50;100630.50;5053810;28;20048;-81
2023/07/13 07:37:03;;;;;;;4.22;1.20;;;;;;;27.32;52.47;100640.03;5054409;28;20056;-81
2023/07/13 07:39:48;;;;;;;7.22;1.08;;;;;;;27.21;51.65;100633.88;5050303;28;20048;-81
2023/07/13 07:42:34;;;;;;;3.88;0.88;;;;;;;27.39;51.91;100636.25;5026333;28;20522;-81
2023/07/13 07:45:19;;;;;;;5.07;1.20;;;;;;;27.15;52.77;100649.53;5040558;28;20047;-81
2023/07/13 07:48:05;;;;;;;7.00;1.73;;;;;;;27.40;52.11;100652.59;5044525;28;20048;-81
2023/07/13 07:50:49;;;;;;;4.60;1.00;;;;;;;27.48;51.54;100650.47;5056325;28;20051;-83
2023/07/13 07:53:35;;;;;;;10.15;1.20;;;;;;;27.55;51.65;100650.31;5054495;28;20043;-81
2023/07/13 07:56:20;;;;;;;4.32;0.90;;;;;;;27.59;51.72;100639.84;5042364;28;20048;-82
2023/07/13 07:59:05;;;;;;;7.30;1.15;;;;;;;27.61;51.24;100643.00;5042919;28;20056;-82
2023/07/13 08:01:50;;;;;;;7.15;1.10;;;;;;;27.64;51.28;100642.13;5026900;28;20047;-81
2023/07/13 08:04:35;;;;;;;4.97;0.95;;;;;;;27.65;51.42;100649.28;5038999;28;20060;-80
2023/07/13 08:07:20;;;;;;;10.07;1.73;;;;;;;27.65;51.34;100640.91;5048109;28;20048;-81
2023/07/13 08:10:09;;;;;;;10.40;1.10;;;;;;;27.71;50.83;100636.38;5046021;28;20044;-81
2023/07/13 08:12:54;;;;;;;14.20;1.65;;;;;;;27.74;50.91;100607.56;5041839;28;20514;-81
2023/07/13 08:15:40;;;;;;;17.90;1.63;;;;;;;27.69;51.23;100610.88;5032476;28;20499;-81
2023/07/13 08:18:25;;;;;;;5.80;1.35;;;;;;;27.68;51.18;100609.31;5046221;28;20041;-80
2023/07/13 08:21:09;;;;;;;10.38;1.75;;;;;;;27.49;51.98;100602.53;5030504;28;20052;-81
2023/07/13 08:23:55;;;;;;;4.93;1.30;;;;;;;27.31;52.46;100601.34;5050465;28;20045;-81
2023/07/13 08:26:40;;;;;;;8.68;1.90;;;;;;;27.26;52.23;100591.47;5034968;28;20052;-82
2023/07/13 08:29:25;;;;;;;3.92;1.23;;;;;;;27.18;52.81;100599.19;5039539;28;20056;-82
2023/07/13 08:32:10;;;;;;;5.22;1.27;;;;;;;27.06;53.29;100596.28;5053192;28;20414;-81
2023/07/13 08:34:55;;;;;;;10.52;1.65;;;;;;;27.04;52.86;100610.66;5038455;28;20410;-81
2023/07/13 08:37:40;;;;;;;8.75;1.48;;;;;;;27.05;52.06;100594.72;5052835;28;20064;-82
2023/07/13 08:40:27;;;;;;;9.57;1.42;;;;;;;26.97;52.43;100568.94;5045355;28;20051;-82
2023/07/13 08:43:25;;;;;;;4.32;1.40;;;;;;;26.71;53.37;100597.75;5040851;28;20059;-80
2023/07/13 08:46:23;;;;;;;7.00;1.35;;;;;;;26.44;53.57;100631.34;5052946;28;20064;-82
2023/07/13 08:49:17;;;;;;;7.13;1.42;;;;;;;26.09;54.52;100646.63;5058884;28;20048;-83
2023/07/13 08:52:16;;;;;;;5.67;1.33;;;;;;;25.83;55.22;100642.66;5040070;28;20048;-81
2023/07/13 08:55:12;;;;;;;5.65;0.90;;;;;;;26.12;55.39;100636.63;5043219;28;20060;-81
2023/07/13 08:58:15;;;;;;;4.75;1.45;;;;;;;26.24;53.57;100642.44;5045281;28;20126;-82
2023/07/13 09:01:03;;;;;;;8.73;1.65;;;;;;;25.85;55.02;100654.16;5043973;28;20052;-80
2023/07/13 09:04:22;;;;;;;6.90;1.88;;;;;;;25.85;55.70;100653.38;5055091;28;20048;-80
2023/07/13 09:07:30;;;;;;;4.22;1.75;;;;;;;26.32;53.83;100649.44;5025316;28;20056;-80
2023/07/13 09:10:26;;;;;;;3.28;1.10;;;;;;;26.58;52.46;100639.44;5052901;28;20055;-81
2023/07/13 09:13:29;;;;;;;7.78;1.20;;;;;;;26.54;53.44;100626.78;5053397;28;20124;-81
2023/07/13 09:16:15;;;;;;;4.00;0.90;;;;;;;26.75;53.82;100620.81;5052402;28;20052;-80
2023/07/13 09:19:06;;;;;;;5.93;1.75;;;;;;;26.96;54.18;100614.84;5046590;28;20041;-81
2023/07/13 09:21:56;;;;;;;2.13;1.30;;;;;;;27.08;53.91;100625.34;5050959;28;20108;-81
2023/07/13 09:25:18;;;;;;;2.25;1.10;;;;;;;27.15;53.69;100643.97;5052465;28;20048;-80
2023/07/13 09:28:14;;;;;;;7.60;1.40;;;;;;;27.30;53.73;100624.91;5044210;28;20542;-83
2023/07/13 09:31:33;;;;;;;3.40;1.17;;;;;;;27.45;53.18;100626.94;5043650;22;20057;-76
2023/07/13 09:34:18;;;;;;;6.70;1.30;;;;;;;27.41;53.11;100625.47;4995662;28;20037;-76
2023/07/13 09:37:04;;;;;;;8.60;1.80;;;;;;;27.41;52.85;100622.66;5003774;28;20053;-77
2023/07/13 09:39:50;;;;;;;6.32;1.20;;;;;;;27.09;52.68;100634.50;4992668;28;20049;-77
2023/07/13 09:42:35;;;;;;;9.20;1.38;;;;;;;26.48;52.88;100628.47;4960957;28;20058;-76
2023/07/13 09:45:28;;;;;;;3.63;1.15;;;;;;;26.27;55.98;100638.78;4990726;28;20049;-76
2023/07/13 09:48:15;;;;;;;10.93;1.05;;;;;;;26.49;53.55;100635.63;4989564;28;20045;-76
2023/07/13 09:51:14;;;;;;;3.47;1.00;;;;;;;26.88;55.02;100646.88;4977630;28;20046;-75
2023/07/13 09:53:59;;;;;;;3.40;1.65;;;;;;;26.59;55.42;100640.22;4990672;28;20431;-75
2023/07/13 09:56:44;;;;;;;2.60;1.05;;;;;;;26.53;52.63;100645.50;4991879;28;20534;-76
2023/07/13 09:59:34;;;;;;;4.10;1.52;;;;;;;27.05;54.13;100648.53;4985738;28;20057;-76
2023/07/13 10:02:34;;;;;;;3.42;1.52;;;;;;;27.09;52.17;100645.66;4977731;28;20061;-76
2023/07/13 10:05:22;;;;;;;3.75;1.38;;;;;;;27.16;52.06;100629.56;4992362;28;20408;-76
2023/07/13 10:08:19;;;;;;;4.65;1.50;;;;;;;27.24;51.20;100616.22;4976815;28;20042;-76
2023/07/13 10:11:17;;;;;;;7.85;1.10;;;;;;;27.48;50.40;100628.09;4991561;28;20049;-76
2023/07/13 10:14:10;;;;;;;6.35;1.23;;;;;;;27.65;52.69;100626.94;4991506;28;20053;-76
2023/07/13 10:17:02;;;;;;;3.95;1.50;;;;;;;27.72;51.80;100637.16;4990438;28;20041;-76
2023/07/13 10:19:48;;;;;;;6.38;1.27;;;;;;;27.64;49.40;100654.09;4981868;28;20045;-75
2023/07/13 10:22:51;;;;;;;6.22;1.75;;;;;;;27.68;48.73;100656.81;4994915;28;20060;-76
2023/07/13 10:25:40;;;;;;;10.50;2.15;;;;;;;27.51;49.43;100649.59;4976695;28;20049;-76
2023/07/13 10:28:29;;;;;;;5.47;1.40;;;;;;;27.56;49.53;100644.31;4983833;28;20037;-76
2023/07/13 10:31:15;;;;;;;9.52;1.65;;;;;;;27.82;48.54;100639.72;4987091;28;20427;-76
2023/07/13 10:34:01;;;;;;;6.60;1.48;;;;;;;27.70;50.07;100656.38;4988251;28;20054;-76
2023/07/13 10:36:48;;;;;;;6.63;1.50;;;;;;;27.73;50.48;100655.50;4975094;28;20070;-76
2023/07/13 10:39:33;;;;;;;7.70;1.90;;;;;;;27.90;51.33;100649.50;4975743;28;20054;-76
2023/07/13 10:42:28;;;;;;;5.60;1.63;;;;;;;27.86;51.16;100653.59;4975360;28;20046;-75
2023/07/13 10:45:15;;;;;;;5.75;1.50;;;;;;;27.95;50.96;100662.97;4976200;28;20054;-76
2023/07/13 10:48:00;;;;;;;6.72;1.23;;;;;;;28.01;50.57;100654.84;4976172;28;20154;-76
2023/07/13 10:50:48;;;;;;;8.88;1.85;;;;;;;28.08;50.07;100649.09;4976259;28;20046;-76
2023/07/13 10:53:36;;;;;;;4.85;1.50;;;;;;;28.12;50.53;100649.81;4975809;28;20058;-76
2023/07/13 10:56:29;;;;;;;11.02;1.65;;;;;;;27.95;49.73;100648.19;4976140;28;20058;-76
2023/07/13 10:59:28;;;;;;;9.45;1.73;;;;;;;27.74;50.52;100641.09;4983552;28;20427;-76
2023/07/13 11:02:28;;;;;;;5.13;1.95;;;;;;;27.90;51.16;100629.94;4995488;28;20058;-76
2023/07/13 11:05:33;;;;;;;4.97;1.60;;;;;;;27.78;50.58;100611.06;4995491;28;20057;-76
2023/07/13 11:08:32;;;;;;;;;;;;;;;27.85;52.04;100613.69;4995542;28;20049;-76
2023/07/13 11:11:23;;;;;;;2.90;1.40;;;;;;;27.91;51.72;100617.53;4995407;28;20570;-77
2023/07/13 11:14:38;;;;;;;3.47;1.90;;;;;;;27.99;50.10;100609.75;4995237;28;20045;-77
2023/07/13 11:17:32;;;;;;;9.95;1.55;;;;;;;28.11;49.47;100602.66;4993505;28;20518;-75
2023/07/13 11:20:16;;;;;;;8.45;1.75;;;;;;;28.09;50.58;100598.28;4985058;28;20111;-76
2023/07/13 11:23:16;;;;;;;4.60;1.75;;;;;;;28.19;51.22;100599.28;4979849;28;20062;-76
2023/07/13 11:26:01;;;;;;;8.57;2.40;;;;;;;28.28;49.75;100596.66;4975569;28;20066;-75
2023/07/13 11:28:50;;;;;;;6.15;1.55;;;;;;;28.41;50.15;100602.31;4978837;28;20069;-76
2023/07/13 11:31:35;;;;;;;4.10;1.77;;;;;;;28.39;50.76;100602.00;4992912;28;20055;-77
2023/07/13 11:34:38;;;;;;;6.75;2.28;;;;;;;28.51;49.14;100592.84;4978932;28;20153;-77
2023/07/13 11:37:24;;;;;;;5.00;1.70;;;;;;;28.62;49.32;100593.34;4989074;28;20065;-76
2023/07/13 11:40:14;;;;;;;5.93;1.95;;;;;;;28.55;49.97;100587.94;4996020;28;20130;-76
2023/07/13 11:43:01;;;;;;;10.52;2.40;;;;;;;28.45;50.16;100598.19;4981902;28;20045;-76
2023/07/13 11:45:46;;;;;;;7.60;1.90;;;;;;;28.54;49.92;100578.00;4986561;28;20053;-77
2023/07/13 11:48:31;;;;;;;10.52;1.90;;;;;;;28.50;49.68;100574.50;4990691;28;20065;-74
2023/07/13 11:51:19;;;;;;;14.90;3.45;;;;;;;28.58;49.20;100575.09;4978914;28;20042;-74
2023/07/13 11:54:23;;;;;;;4.53;1.85;;;;;;;28.69;48.65;100570.00;4974321;28;20038;-74
2023/07/13 11:57:28;;;;;;;8.98;2.70;;;;;;;28.67;49.23;100576.03;4985149;28;20050;-74
2023/07/13 12:00:18;;;;;;;11.80;2.08;;;;;;;29.05;48.00;100564.19;4982463;28;20046;-75
2023/07/13 12:03:04;;;;;;;5.85;1.45;;;;;;;29.16;45.75;100564.63;4974847;28;20050;-74
2023/07/13 12:05:57;;;;;;;11.45;1.83;;;;;;;29.11;46.50;100557.56;4974764;28;20404;-74
2023/07/13 12:08:42;;;;;;;9.10;2.25;;;;;;;28.96;46.56;100555.63;4974627;28;20046;-74
2023/07/13 12:11:27;;;;;;;3.78;1.67;;;;;;;28.96;46.29;100550.03;4963216;28;20382;-74
2023/07/13 12:14:17;;;;;;;5.70;1.35;;;;;;;29.08;46.27;100558.47;4992350;28;20069;-73
2023/07/13 12:17:11;;;;;;;8.80;2.03;;;;;;;28.97;47.33;100558.00;4996107;28;20129;-74
2023/07/13 12:19:56;;;;;;;9.52;1.45;;;;;;;28.99;47.11;100563.16;4995145;28;20162;-74
2023/07/13 12:22:46;;;;;;;9.63;1.38;;;;;;;29.03;47.07;100549.81;4994929;28;20045;-74
2023/07/13 12:25:30;;;;;;;6.38;1.92;;;;;;;28.91;46.44;100549.34;4994204;28;20053;-75
2023/07/13 12:28:34;;;;;;;8.05;1.50;;;;;;;28.89;47.24;100545.44;4993752;28;20049;-74
2023/07/13 12:31:36;;;;;;;8.43;2.08;;;;;;;29.12;46.92;100536.72;4985103;28;20435;-74
2023/07/13 12:34:22;;;;;;;7.20;2.50;;;;;;;29.15;46.93;100540.66;4974333;28;20045;-74
2023/07/13 12:37:12;;;;;;;7.85;2.28;;;;;;;29.21;46.97;100550.06;4974139;28;20050;-74
2023/07/13 12:39:56;;;;;;;6.45;1.83;;;;;;;29.12;47.15;100549.94;4974170;28;20054;-74
2023/07/13 12:42:41;;;;;;;4.47;1.75;;;;;;;29.32;46.38;100545.75;4973093;28;20050;-75
2023/07/13 12:45:30;;;;;;;5.18;2.13;;;;;;;29.40;46.28;100535.09;4975249;28;20062;-74
2023/07/13 12:48:20;;;;;;;6.88;2.40;;;;;;;29.50;45.15;100525.56;4986095;28;20053;-74
2023/07/13 12:51:11;;;;;;;7.88;1.55;;;;;;;29.46;46.34;100533.28;4986677;28;20053;-75
2023/07/13 12:54:19;;;;;;;5.80;1.67;;;;;;;29.15;47.23;100524.66;4981953;28;20057;-74
2023/07/13 12:57:04;;;;;;;6.25;1.50;;;;;;;29.08;46.90;100518.47;4972622;28;20608;-74
2023/07/13 12:59:52;;;;;;;10.65;2.45;;;;;;;29.17;47.51;100521.38;4973861;28;20089;-74